sensor_id;sensor_type;location;lat;lon;timestamp;pressure;altitude;pressure_sealevel;temperature;humidity
21357;BME280;10836;53.068;18.234;2022-11-23T00:01:28;100246.84;;;0.29;100.00
21357;BME280;10836;53.068;18.234;2022-11-23T00:03:59;100257.75;;;0.34;100.00
21357;BME280;10836;53.068;18.234;2022-11-23T00:06:26;100253.25;;;0.28;100.00
21357;BME280;10836;53.068;18.234;2022-11-23T00:08:54;100261.09;;;0.29;100.00
21357;BME280;10836;53.068;18.234;2022-11-23T00:11:22;100264.81;;;0.28;100.00
21357;BME280;10836;53.068;18.234;2022-11-23T00:13:51;100274.69;;;0.35;100.00
21357;BME280;10836;53.068;18.234;2022-11-23T00:16:24;100269.28;;;0.41;100.00
21357;BME280;10836;53.068;18.234;2022-11-23T00:18:56;100269.88;;;0.43;100.00
21357;BME280;10836;53.068;18.234;2022-11-23T00:21:25;100270.56;;;0.32;100.00
21357;BME280;10836;53.068;18.234;2022-11-23T00:23:53;100272.03;;;0.28;100.00
21357;BME280;10836;53.068;18.234;2022-11-23T00:26:20;100283.31;;;0.43;100.00
21357;BME280;10836;53.068;18.234;2022-11-23T00:28:48;100283.44;;;0.48;100.00
21357;BME280;10836;53.068;18.234;2022-11-23T00:31:17;100280.22;;;0.40;100.00
21357;BME280;10836;53.068;18.234;2022-11-23T00:33:52;100279.78;;;0.43;100.00
21357;BME280;10836;53.068;18.234;2022-11-23T00:36:21;100275.94;;;0.32;100.00
21357;BME280;10836;53.068;18.234;2022-11-23T00:38:49;100283.75;;;0.40;100.00
21357;BME280;10836;53.068;18.234;2022-11-23T00:41:23;100284.34;;;0.42;100.00
21357;BME280;10836;53.068;18.234;2022-11-23T00:43:51;100288.16;;;0.53;100.00
21357;BME280;10836;53.068;18.234;2022-11-23T00:46:20;100291.47;;;0.55;100.00
21357;BME280;10836;53.068;18.234;2022-11-23T00:48:50;100282.78;;;0.53;100.00
21357;BME280;10836;53.068;18.234;2022-11-23T00:51:27;100289.84;;;0.47;100.00
21357;BME280;10836;53.068;18.234;2022-11-23T00:53:54;100281.41;;;0.44;100.00
21357;BME280;10836;53.068;18.234;2022-11-23T00:56:23;100279.41;;;0.39;100.00
21357;BME280;10836;53.068;18.234;2022-11-23T00:58:51;100284.09;;;0.44;100.00
21357;BME280;10836;53.068;18.234;2022-11-23T01:01:22;100274.78;;;0.46;100.00
21357;BME280;10836;53.068;18.234;2022-11-23T01:03:53;100274.63;;;0.41;100.00
21357;BME280;10836;53.068;18.234;2022-11-23T01:06:26;100276.28;;;0.42;100.00
21357;BME280;10836;53.068;18.234;2022-11-23T01:08:56;100279.91;;;0.54;100.00
21357;BME280;10836;53.068;18.234;2022-11-23T01:11:26;100279.03;;;0.60;100.00
21357;BME280;10836;53.068;18.234;2022-11-23T01:13:53;100269.91;;;0.61;100.00
21357;BME280;10836;53.068;18.234;2022-11-23T01:16:26;100272.44;;;0.56;100.00
21357;BME280;10836;53.068;18.234;2022-11-23T01:18:58;100274.03;;;0.64;100.00
21357;BME280;10836;53.068;18.234;2022-11-23T01:21:28;100273.16;;;0.70;100.00
21357;BME280;10836;53.068;18.234;2022-11-23T01:23:56;100266.91;;;0.51;100.00
21357;BME280;10836;53.068;18.234;2022-11-23T01:26:23;100271.13;;;0.41;100.00
21357;BME280;10836;53.068;18.234;2022-11-23T01:28:51;100269.59;;;0.51;100.00
21357;BME280;10836;53.068;18.234;2022-11-23T01:31:23;100273.59;;;0.42;100.00
21357;BME280;10836;53.068;18.234;2022-11-23T01:33:58;100271.66;;;0.49;100.00
21357;BME280;10836;53.068;18.234;2022-11-23T01:36:28;100283.66;;;0.47;100.00
21357;BME280;10836;53.068;18.234;2022-11-23T01:38:57;100284.16;;;0.37;100.00
21357;BME280;10836;53.068;18.234;2022-11-23T01:41:27;100277.94;;;0.43;100.00
21357;BME280;10836;53.068;18.234;2022-11-23T01:43:55;100281.97;;;0.52;100.00
21357;BME280;10836;53.068;18.234;2022-11-23T01:46:23;100281.53;;;0.55;100.00
21357;BME280;10836;53.068;18.234;2022-11-23T01:51:27;100277.03;;;0.49;100.00
21357;BME280;10836;53.068;18.234;2022-11-23T01:53:59;100279.63;;;0.38;100.00
21357;BME280;10836;53.068;18.234;2022-11-23T01:56:30;100268.91;;;0.31;100.00
21357;BME280;10836;53.068;18.234;2022-11-23T01:59:03;100272.66;;;0.30;100.00
21357;BME280;10836;53.068;18.234;2022-11-23T02:01:33;100280.69;;;0.30;100.00
21357;BME280;10836;53.068;18.234;2022-11-23T02:04:01;100279.66;;;0.31;100.00
21357;BME280;10836;53.068;18.234;2022-11-23T02:06:29;100279.22;;;0.34;100.00
21357;BME280;10836;53.068;18.234;2022-11-23T02:09:01;100270.56;;;0.32;100.00
21357;BME280;10836;53.068;18.234;2022-11-23T02:11:28;100271.44;;;0.26;100.00
21357;BME280;10836;53.068;18.234;2022-11-23T02:13:55;100265.19;;;0.32;100.00
21357;BME280;10836;53.068;18.234;2022-11-23T02:16:22;100269.34;;;0.28;100.00
21357;BME280;10836;53.068;18.234;2022-11-23T02:18:51;100269.31;;;0.35;100.00
21357;BME280;10836;53.068;18.234;2022-11-23T02:21:19;100264.81;;;0.28;100.00
21357;BME280;10836;53.068;18.234;2022-11-23T02:24:05;100277.16;;;0.36;100.00
21357;BME280;10836;53.068;18.234;2022-11-23T02:26:35;100276.53;;;0.34;100.00
21357;BME280;10836;53.068;18.234;2022-11-23T02:29:22;100271.38;;;0.32;100.00
21357;BME280;10836;53.068;18.234;2022-11-23T02:31:51;100271.34;;;0.39;100.00
21357;BME280;10836;53.068;18.234;2022-11-23T02:34:23;100270.13;;;0.35;100.00
21357;BME280;10836;53.068;18.234;2022-11-23T02:36:53;100268.50;;;0.34;100.00
21357;BME280;10836;53.068;18.234;2022-11-23T02:39:40;100275.34;;;0.30;100.00
21357;BME280;10836;53.068;18.234;2022-11-23T02:42:08;100269.31;;;0.35;100.00
21357;BME280;10836;53.068;18.234;2022-11-23T02:47:09;100271.88;;;0.23;100.00
21357;BME280;10836;53.068;18.234;2022-11-23T02:49:40;100267.66;;;0.33;100.00
21357;BME280;10836;53.068;18.234;2022-11-23T02:52:08;100269.97;;;0.30;100.00
21357;BME280;10836;53.068;18.234;2022-11-23T02:54:35;100270.13;;;0.35;100.00
21357;BME280;10836;53.068;18.234;2022-11-23T02:57:04;100271.56;;;0.38;100.00
21357;BME280;10836;53.068;18.234;2022-11-23T02:59:32;100271.16;;;0.34;100.00
21357;BME280;10836;53.068;18.234;2022-11-23T03:02:01;100280.84;;;0.42;100.00
21357;BME280;10836;53.068;18.234;2022-11-23T03:04:30;100288.69;;;0.43;100.00
21357;BME280;10836;53.068;18.234;2022-11-23T03:06:57;100292.16;;;0.44;100.00
21357;BME280;10836;53.068;18.234;2022-11-23T03:09:25;100289.09;;;0.40;100.00
21357;BME280;10836;53.068;18.234;2022-11-23T03:11:53;100295.22;;;0.47;100.00
21357;BME280;10836;53.068;18.234;2022-11-23T03:14:20;100289.75;;;0.36;100.00
21357;BME280;10836;53.068;18.234;2022-11-23T03:16:57;100294.09;;;0.37;100.00
21357;BME280;10836;53.068;18.234;2022-11-23T03:19:25;100301.22;;;0.49;100.00
21357;BME280;10836;53.068;18.234;2022-11-23T03:21:53;100300.00;;;0.45;100.00
21357;BME280;10836;53.068;18.234;2022-11-23T03:24:20;100290.75;;;0.41;100.00
21357;BME280;10836;53.068;18.234;2022-11-23T03:26:50;100286.97;;;0.49;100.00
21357;BME280;10836;53.068;18.234;2022-11-23T03:29:19;100285.91;;;0.50;100.00
21357;BME280;10836;53.068;18.234;2022-11-23T03:31:47;100289.81;;;0.54;100.00
21357;BME280;10836;53.068;18.234;2022-11-23T03:34:17;100279.53;;;0.44;100.00
21357;BME280;10836;53.068;18.234;2022-11-23T03:36:44;100284.00;;;0.57;100.00
21357;BME280;10836;53.068;18.234;2022-11-23T03:39:12;100277.59;;;0.58;100.00
21357;BME280;10836;53.068;18.234;2022-11-23T03:41:58;100273.31;;;0.50;100.00
21357;BME280;10836;53.068;18.234;2022-11-23T03:44:32;100275.81;;;0.45;100.00
21357;BME280;10836;53.068;18.234;2022-11-23T03:46:59;100271.66;;;0.49;100.00
21357;BME280;10836;53.068;18.234;2022-11-23T03:49:27;100271.66;;;0.49;100.00
21357;BME280;10836;53.068;18.234;2022-11-23T03:51:54;100272.31;;;0.45;100.00
21357;BME280;10836;53.068;18.234;2022-11-23T03:54:21;100280.84;;;0.42;100.00
21357;BME280;10836;53.068;18.234;2022-11-23T03:56:48;100270.44;;;0.45;100.00
21357;BME280;10836;53.068;18.234;2022-11-23T03:59:16;100276.00;;;0.50;100.00
21357;BME280;10836;53.068;18.234;2022-11-23T04:01:43;100282.84;;;0.46;100.00
21357;BME280;10836;53.068;18.234;2022-11-23T04:04:17;100271.00;;;0.29;100.00
21357;BME280;10836;53.068;18.234;2022-11-23T04:06:59;100278.44;;;0.27;100.00
21357;BME280;10836;53.068;18.234;2022-11-23T04:09:31;100265.03;;;0.27;100.00
21357;BME280;10836;53.068;18.234;2022-11-23T04:12:05;100263.50;;;0.38;100.00
21357;BME280;10836;53.068;18.234;2022-11-23T04:14:35;100259.59;;;0.33;100.00
21357;BME280;10836;53.068;18.234;2022-11-23T04:17:02;100254.88;;;0.29;100.00
21357;BME280;10836;53.068;18.234;2022-11-23T04:19:30;100253.66;;;0.25;100.00
21357;BME280;10836;53.068;18.234;2022-11-23T04:21:58;100262.34;;;0.27;100.00
21357;BME280;10836;53.068;18.234;2022-11-23T04:24:29;100268.13;;;0.24;100.00
21357;BME280;10836;53.068;18.234;2022-11-23T04:26:58;100268.75;;;0.26;100.00
21357;BME280;10836;53.068;18.234;2022-11-23T04:29:26;100264.84;;;0.22;100.00
21357;BME280;10836;53.068;18.234;2022-11-23T04:31:53;100262.16;;;0.22;100.00
21357;BME280;10836;53.068;18.234;2022-11-23T04:34:21;100269.00;;;0.18;100.00
21357;BME280;10836;53.068;18.234;2022-11-23T04:36:51;100266.91;;;0.20;100.00
21357;BME280;10836;53.068;18.234;2022-11-23T04:39:25;100259.03;;;0.25;100.00
21357;BME280;10836;53.068;18.234;2022-11-23T04:42:15;100261.28;;;0.28;100.00
21357;BME280;10836;53.068;18.234;2022-11-23T04:44:48;100256.88;;;0.40;100.00
21357;BME280;10836;53.068;18.234;2022-11-23T04:47:16;100257.31;;;0.37;100.00
21357;BME280;10836;53.068;18.234;2022-11-23T04:49:46;100265.19;;;0.32;100.00
21357;BME280;10836;53.068;18.234;2022-11-23T04:52:13;100261.03;;;0.36;100.00
21357;BME280;10836;53.068;18.234;2022-11-23T04:54:45;100264.34;;;0.38;100.00
21357;BME280;10836;53.068;18.234;2022-11-23T04:57:12;100265.75;;;0.41;100.00
21357;BME280;10836;53.068;18.234;2022-11-23T04:59:41;100267.88;;;0.32;100.00
21357;BME280;10836;53.068;18.234;2022-11-23T05:02:09;100273.84;;;0.34;100.00
21357;BME280;10836;53.068;18.234;2022-11-23T05:04:46;100269.28;;;0.41;100.00
21357;BME280;10836;53.068;18.234;2022-11-23T05:07:15;100272.59;;;0.37;100.00
21357;BME280;10836;53.068;18.234;2022-11-23T05:09:46;100267.28;;;0.30;100.00
21357;BME280;10836;53.068;18.234;2022-11-23T05:12:19;100283.31;;;0.43;100.00
21357;BME280;10836;53.068;18.234;2022-11-23T05:14:47;100268.38;;;0.47;100.00
21357;BME280;10836;53.068;18.234;2022-11-23T05:17:19;100268.06;;;0.62;100.00
21357;BME280;10836;53.068;18.234;2022-11-23T05:19:48;100272.22;;;0.58;100.00
21357;BME280;10836;53.068;18.234;2022-11-23T05:22:16;100276.16;;;0.55;100.00
21357;BME280;10836;53.068;18.234;2022-11-23T05:24:44;100276.94;;;0.62;100.00
21357;BME280;10836;53.068;18.234;2022-11-23T05:27:15;100277.81;;;0.56;100.00
21357;BME280;10836;53.068;18.234;2022-11-23T05:29:43;100276.16;;;0.55;100.00
21357;BME280;10836;53.068;18.234;2022-11-23T05:32:10;100295.22;;;0.47;100.00
21357;BME280;10836;53.068;18.234;2022-11-23T05:34:38;100282.91;;;0.40;100.00
21357;BME280;10836;53.068;18.234;2022-11-23T05:37:07;100286.75;;;0.50;100.00
21357;BME280;10836;53.068;18.234;2022-11-23T05:39:40;100289.84;;;0.47;100.00
21357;BME280;10836;53.068;18.234;2022-11-23T05:42:08;100291.06;;;0.51;100.00
21357;BME280;10836;53.068;18.234;2022-11-23T05:44:38;100291.06;;;0.51;100.00
21357;BME280;10836;53.068;18.234;2022-11-23T05:47:10;100295.66;;;0.44;100.00
21357;BME280;10836;53.068;18.234;2022-11-23T05:49:38;100289.84;;;0.47;100.00
21357;BME280;10836;53.068;18.234;2022-11-23T05:52:05;100286.53;;;0.52;100.00
21357;BME280;10836;53.068;18.234;2022-11-23T05:54:35;100278.69;;;0.50;100.00
21357;BME280;10836;53.068;18.234;2022-11-23T05:57:11;100275.34;;;0.55;100.00
21357;BME280;10836;53.068;18.234;2022-11-23T05:59:43;100286.97;;;0.49;100.00
21357;BME280;10836;53.068;18.234;2022-11-23T06:02:17;100289.78;;;0.60;100.00
21357;BME280;10836;53.068;18.234;2022-11-23T06:04:47;100291.06;;;0.51;100.00
21357;BME280;10836;53.068;18.234;2022-11-23T06:07:19;100293.94;;;0.56;100.00
21357;BME280;10836;53.068;18.234;2022-11-23T06:10:07;100295.22;;;0.47;100.00
21357;BME280;10836;53.068;18.234;2022-11-23T06:12:38;100301.50;;;0.41;100.00
21357;BME280;10836;53.068;18.234;2022-11-23T06:15:09;100304.22;;;0.35;100.00
21357;BME280;10836;53.068;18.234;2022-11-23T06:17:38;100301.97;;;0.31;100.00
21357;BME280;10836;53.068;18.234;2022-11-23T06:20:10;100303.84;;;0.31;100.00
21357;BME280;10836;53.068;18.234;2022-11-23T06:22:42;100305.06;;;0.35;100.00
21357;BME280;10836;53.068;18.234;2022-11-23T06:25:09;100302.38;;;0.35;100.00
21357;BME280;10836;53.068;18.234;2022-11-23T06:27:54;100299.41;;;0.43;100.00
21357;BME280;10836;53.068;18.234;2022-11-23T06:30:26;100303.56;;;0.39;100.00
21357;BME280;10836;53.068;18.234;2022-11-23T06:33:01;100308.94;;;0.39;100.00
21357;BME280;10836;53.068;18.234;2022-11-23T06:35:36;100302.38;;;0.35;100.00
21357;BME280;10836;53.068;18.234;2022-11-23T06:38:03;100309.78;;;0.40;100.00
21357;BME280;10836;53.068;18.234;2022-11-23T06:40:31;100313.88;;;0.42;100.00
21357;BME280;10836;53.068;18.234;2022-11-23T06:42:59;100313.50;;;0.39;100.00
21357;BME280;10836;53.068;18.234;2022-11-23T06:45:37;100312.69;;;0.38;100.00
21357;BME280;10836;53.068;18.234;2022-11-23T06:48:07;100310.31;;;0.48;100.00
21357;BME280;10836;53.068;18.234;2022-11-23T06:50:40;100318.38;;;0.48;100.00
21357;BME280;10836;53.068;18.234;2022-11-23T06:53:08;100317.16;;;0.44;100.00
21357;BME280;10836;53.068;18.234;2022-11-23T06:55:45;100324.16;;;0.45;100.00
21357;BME280;10836;53.068;18.234;2022-11-23T06:58:16;100317.63;;;0.41;100.00
21357;BME280;10836;53.068;18.234;2022-11-23T07:00:43;100324.34;;;0.50;100.00
21357;BME280;10836;53.068;18.234;2022-11-23T07:03:20;100330.69;;;0.62;100.00
21357;BME280;10836;53.068;18.234;2022-11-23T07:05:53;100328.25;;;0.54;100.00
21357;BME280;10836;53.068;18.234;2022-11-23T07:08:24;100328.25;;;0.54;100.00
21357;BME280;10836;53.068;18.234;2022-11-23T07:10:58;100334.59;;;0.66;100.00
21357;BME280;10836;53.068;18.234;2022-11-23T07:13:25;100329.81;;;0.69;100.00
21357;BME280;10836;53.068;18.234;2022-11-23T07:15:53;100336.22;;;0.68;100.00
21357;BME280;10836;53.068;18.234;2022-11-23T07:18:20;100337.28;;;0.66;100.00
21357;BME280;10836;53.068;18.234;2022-11-23T07:20:52;100332.75;;;0.60;100.00
21357;BME280;10836;53.068;18.234;2022-11-23T07:23:20;100331.94;;;0.60;100.00
21357;BME280;10836;53.068;18.234;2022-11-23T07:25:47;100338.47;;;0.71;100.00
21357;BME280;10836;53.068;18.234;2022-11-23T07:28:15;100332.31;;;0.63;100.00
21357;BME280;10836;53.068;18.234;2022-11-23T07:30:43;100339.25;;;0.78;100.00
21357;BME280;10836;53.068;18.234;2022-11-23T07:33:11;100336.22;;;0.68;100.00
21357;BME280;10836;53.068;18.234;2022-11-23T07:35:40;100336.13;;;0.81;100.00
21357;BME280;10836;53.068;18.234;2022-11-23T07:38:08;100343.41;;;0.74;100.00
21357;BME280;10836;53.068;18.234;2022-11-23T07:40:36;100348.78;;;0.74;100.00
21357;BME280;10836;53.068;18.234;2022-11-23T07:43:07;100346.94;;;0.74;100.00
21357;BME280;10836;53.068;18.234;2022-11-23T07:45:35;100352.97;;;0.70;100.00
21357;BME280;10836;53.068;18.234;2022-11-23T07:48:07;100354.66;;;0.64;100.00
21357;BME280;10836;53.068;18.234;2022-11-23T07:50:36;100346.81;;;0.62;100.00
21357;BME280;10836;53.068;18.234;2022-11-23T07:53:04;100352.53;;;0.73;100.00
21357;BME280;10836;53.068;18.234;2022-11-23T07:55:32;100357.56;;;0.62;100.00
21357;BME280;10836;53.068;18.234;2022-11-23T07:57:59;100358.75;;;0.66;100.00
21357;BME280;10836;53.068;18.234;2022-11-23T08:00:27;100359.97;;;0.71;100.00
21357;BME280;10836;53.068;18.234;2022-11-23T08:02:57;100364.56;;;0.63;100.00
21357;BME280;10836;53.068;18.234;2022-11-23T08:05:45;100367.22;;;0.70;100.00
21357;BME280;10836;53.068;18.234;2022-11-23T08:08:12;100363.72;;;0.70;100.00
21357;BME280;10836;53.068;18.234;2022-11-23T08:10:39;100366.63;;;0.68;100.00
21357;BME280;10836;53.068;18.234;2022-11-23T08:13:13;100367.78;;;0.79;100.00
21357;BME280;10836;53.068;18.234;2022-11-23T08:15:40;100375.94;;;0.65;100.00
21357;BME280;10836;53.068;18.234;2022-11-23T08:18:08;100373.84;;;0.68;100.00
21357;BME280;10836;53.068;18.234;2022-11-23T08:20:36;100372.72;;;0.82;100.00
21357;BME280;10836;53.068;18.234;2022-11-23T08:23:02;100378.53;;;0.79;100.00
21357;BME280;10836;53.068;18.234;2022-11-23T08:25:30;100377.50;;;0.80;100.00
21357;BME280;10836;53.068;18.234;2022-11-23T08:27:59;100382.56;;;0.88;100.00
21357;BME280;10836;53.068;18.234;2022-11-23T08:30:28;100385.94;;;0.83;100.00
21357;BME280;10836;53.068;18.234;2022-11-23T08:32:55;100388.25;;;0.80;100.00
21357;BME280;10836;53.068;18.234;2022-11-23T08:35:23;100389.59;;;0.89;100.00
21357;BME280;10836;53.068;18.234;2022-11-23T08:37:50;100390.75;;;0.75;100.00
21357;BME280;10836;53.068;18.234;2022-11-23T08:40:17;100393.28;;;0.70;100.00
21357;BME280;10836;53.068;18.234;2022-11-23T08:42:51;100402.41;;;0.62;100.00
21357;BME280;10836;53.068;18.234;2022-11-23T08:45:19;100410.44;;;0.69;100.00
21357;BME280;10836;53.068;18.234;2022-11-23T08:47:46;100401.81;;;0.53;100.00
21357;BME280;10836;53.068;18.234;2022-11-23T08:50:14;100405.06;;;0.69;100.00
21357;BME280;10836;53.068;18.234;2022-11-23T08:52:41;100406.16;;;0.54;100.00
21357;BME280;10836;53.068;18.234;2022-11-23T08:55:09;100403.84;;;0.64;100.00
21357;BME280;10836;53.068;18.234;2022-11-23T08:57:36;100401.38;;;0.63;100.00
21357;BME280;10836;53.068;18.234;2022-11-23T09:00:04;100399.84;;;0.74;100.00
21357;BME280;10836;53.068;18.234;2022-11-23T09:02:31;100396.78;;;0.70;100.00
21357;BME280;10836;53.068;18.234;2022-11-23T09:04:59;100384.78;;;0.73;100.00
21357;BME280;10836;53.068;18.234;2022-11-23T09:07:26;100394.34;;;0.62;100.00
21357;BME280;10836;53.068;18.234;2022-11-23T09:09:53;100380.69;;;0.63;100.00
21357;BME280;10836;53.068;18.234;2022-11-23T09:12:20;100381.59;;;0.51;100.00
21357;BME280;10836;53.068;18.234;2022-11-23T09:14:48;100383.63;;;0.55;100.00
21357;BME280;10836;53.068;18.234;2022-11-23T09:17:15;100380.31;;;0.60;100.00
21357;BME280;10836;53.068;18.234;2022-11-23T09:19:42;100370.63;;;0.52;100.00
21357;BME280;10836;53.068;18.234;2022-11-23T09:22:09;100375.41;;;0.50;100.00
21357;BME280;10836;53.068;18.234;2022-11-23T09:24:36;100376.81;;;0.53;100.00
21357;BME280;10836;53.068;18.234;2022-11-23T09:27:03;100373.31;;;0.52;100.00
21357;BME280;10836;53.068;18.234;2022-11-23T09:29:31;100368.81;;;0.46;100.00
21357;BME280;10836;53.068;18.234;2022-11-23T09:31:58;100368.28;;;0.62;100.00
21357;BME280;10836;53.068;18.234;2022-11-23T09:34:25;100370.13;;;0.69;100.00
21357;BME280;10836;53.068;18.234;2022-11-23T09:36:52;100359.19;;;0.63;100.00
21357;BME280;10836;53.068;18.234;2022-11-23T09:39:19;100365.34;;;0.71;100.00
21357;BME280;10836;53.068;18.234;2022-11-23T09:50:17;100364.91;;;0.74;100.00
21357;BME280;10836;53.068;18.234;2022-11-23T09:52:49;100357.91;;;0.73;100.00
21357;BME280;10836;53.068;18.234;2022-11-23T09:57:59;100365.59;;;0.94;100.00
21357;BME280;10836;53.068;18.234;2022-11-23T10:00:36;100367.28;;;0.88;100.00
21357;BME280;10836;53.068;18.234;2022-11-23T10:03:04;100361.06;;;0.88;100.00
21357;BME280;10836;53.068;18.234;2022-11-23T10:05:36;100368.09;;;0.89;100.00
21357;BME280;10836;53.068;18.234;2022-11-23T10:08:29;100366.00;;;0.91;100.00
21357;BME280;10836;53.068;18.234;2022-11-23T10:22:58;100359.44;;;0.87;100.00
21357;BME280;10836;53.068;18.234;2022-11-23T10:25:37;100362.84;;;0.76;100.00
21357;BME280;10836;53.068;18.234;2022-11-23T10:28:12;100353.75;;;0.77;100.00
21357;BME280;10836;53.068;18.234;2022-11-23T10:30:40;100362.03;;;0.75;100.00
21357;BME280;10836;53.068;18.234;2022-11-23T10:33:29;100359.44;;;0.87;100.00
21357;BME280;10836;53.068;18.234;2022-11-23T10:35:57;100358.78;;;0.91;100.00
21357;BME280;10836;53.068;18.234;2022-11-23T10:38:26;100361.06;;;0.88;100.00
21357;BME280;10836;53.068;18.234;2022-11-23T10:41:13;100361.47;;;0.91;100.00
21357;BME280;10836;53.068;18.234;2022-11-23T10:44:06;100349.88;;;0.91;100.00
21357;BME280;10836;53.068;18.234;2022-11-23T10:46:39;100342.44;;;0.93;100.00
21357;BME280;10836;53.068;18.234;2022-11-23T10:49:20;100345.72;;;0.95;100.00
21357;BME280;10836;53.068;18.234;2022-11-23T10:52:02;100348.41;;;0.95;100.00
21357;BME280;10836;53.068;18.234;2022-11-23T10:57:21;100340.34;;;0.95;100.00
21357;BME280;10836;53.068;18.234;2022-11-23T11:00:13;100338.44;;;1.02;100.00
21357;BME280;10836;53.068;18.234;2022-11-23T11:02:49;100335.91;;;1.07;100.00
21357;BME280;10836;53.068;18.234;2022-11-23T11:05:30;100332.78;;;1.10;100.00
21357;BME280;10836;53.068;18.234;2022-11-23T11:08:19;100332.28;;;0.95;100.00
21357;BME280;10836;53.068;18.234;2022-11-23T11:10:49;100336.56;;;1.03;100.00
21357;BME280;10836;53.068;18.234;2022-11-23T11:13:23;100330.75;;;1.06;100.00
21357;BME280;10836;53.068;18.234;2022-11-23T11:15:53;100337.16;;;1.05;100.00
21357;BME280;10836;53.068;18.234;2022-11-23T11:18:20;100328.47;;;0.84;100.00
21357;BME280;10836;53.068;18.234;2022-11-23T11:20:55;100338.81;;;0.81;100.00
21357;BME280;10836;53.068;18.234;2022-11-23T11:23:23;100339.88;;;0.80;100.00
21357;BME280;10836;53.068;18.234;2022-11-23T11:26:05;100336.31;;;0.86;100.00
21357;BME280;10836;53.068;18.234;2022-11-23T11:28:36;100333.44;;;0.81;100.00
21357;BME280;10836;53.068;18.234;2022-11-23T11:31:24;100323.13;;;0.78;100.00
21357;BME280;10836;53.068;18.234;2022-11-23T11:36:27;100323.13;;;0.78;100.00
21357;BME280;10836;53.068;18.234;2022-11-23T11:38:58;100330.41;;;0.95;100.00
21357;BME280;10836;53.068;18.234;2022-11-23T11:41:46;100331.81;;;0.80;100.00
21357;BME280;10836;53.068;18.234;2022-11-23T11:44:20;100334.31;;;0.75;100.00
21357;BME280;10836;53.068;18.234;2022-11-23T11:46:59;100323.97;;;0.78;100.00
21357;BME280;10836;53.068;18.234;2022-11-23T11:49:38;100322.25;;;0.84;100.00
21357;BME280;10836;53.068;18.234;2022-11-23T11:52:17;100321.09;;;0.98;100.00
21357;BME280;10836;53.068;18.234;2022-11-23T11:55:04;100328.00;;;0.87;100.00
21357;BME280;10836;53.068;18.234;2022-11-23T11:57:36;100326.59;;;0.85;100.00
21357;BME280;10836;53.068;18.234;2022-11-23T12:00:14;100324.34;;;0.82;100.00
21357;BME280;10836;53.068;18.234;2022-11-23T12:05:38;100310.91;;;0.82;100.00
21357;BME280;10836;53.068;18.234;2022-11-23T12:10:54;100315.25;;;0.83;100.00
21357;BME280;10836;53.068;18.234;2022-11-23T12:13:43;100316.88;;;0.84;100.00
21357;BME280;10836;53.068;18.234;2022-11-23T12:16:26;100320.25;;;0.97;100.00
21357;BME280;10836;53.068;18.234;2022-11-23T12:40:32;100314.06;;;0.97;100.00
21357;BME280;10836;53.068;18.234;2022-11-23T12:43:21;100306.16;;;1.02;100.00
21357;BME280;10836;53.068;18.234;2022-11-23T12:51:42;100314.50;;;0.94;100.00
21357;BME280;10836;53.068;18.234;2022-11-23T12:59:24;100308.22;;;0.82;100.00
21357;BME280;10836;53.068;18.234;2022-11-23T13:02:00;100309.66;;;0.84;100.00
21357;BME280;10836;53.068;18.234;2022-11-23T13:04:48;100307.69;;;0.91;100.00
21357;BME280;10836;53.068;18.234;2022-11-23T13:10:34;100316.28;;;0.82;100.00
21357;BME280;10836;53.068;18.234;2022-11-23T13:13:14;100317.03;;;0.89;100.00
21357;BME280;10836;53.068;18.234;2022-11-23T13:23:42;100331.91;;;0.91;100.00
21357;BME280;10836;53.068;18.234;2022-11-23T13:28:41;100331.97;;;0.85;100.00
21357;BME280;10836;53.068;18.234;2022-11-23T13:33:46;100337.50;;;0.90;100.00
21357;BME280;10836;53.068;18.234;2022-11-23T13:40:21;100337.78;;;0.82;100.00
21357;BME280;10836;53.068;18.234;2022-11-23T13:42:24;100336.31;;;0.86;100.00
21357;BME280;10836;53.068;18.234;2022-11-23T13:50:39;100339.69;;;0.75;100.00
21357;BME280;10836;53.068;18.234;2022-11-23T13:55:52;100344.47;;;0.73;100.00
21357;BME280;10836;53.068;18.234;2022-11-23T14:00:51;100344.63;;;0.78;100.00
21357;BME280;10836;53.068;18.234;2022-11-23T14:06:46;100351.66;;;0.79;100.00
21357;BME280;10836;53.068;18.234;2022-11-23T14:09:37;100349.19;;;0.77;100.00
21357;BME280;10836;53.068;18.234;2022-11-23T14:14:49;100349.84;;;0.73;100.00
21357;BME280;10836;53.068;18.234;2022-11-23T14:21:00;100353.81;;;0.63;100.00
21357;BME280;10836;53.068;18.234;2022-11-23T14:24:05;100346.72;;;0.76;100.00
21357;BME280;10836;53.068;18.234;2022-11-23T14:42:44;100360.53;;;1.04;100.00
21357;BME280;10836;53.068;18.234;2022-11-23T14:45:13;100366.41;;;0.94;100.00
21357;BME280;10836;53.068;18.234;2022-11-23T14:47:41;100366.31;;;1.08;100.00
21357;BME280;10836;53.068;18.234;2022-11-23T14:50:24;100379.19;;;0.99;100.00
21357;BME280;10836;53.068;18.234;2022-11-23T14:52:53;100372.00;;;0.93;100.00
21357;BME280;10836;53.068;18.234;2022-11-23T14:55:27;100370.19;;;0.87;100.00
21357;BME280;10836;53.068;18.234;2022-11-23T14:58:01;100369.44;;;0.80;100.00
21357;BME280;10836;53.068;18.234;2022-11-23T15:00:36;100373.00;;;0.98;100.00
21357;BME280;10836;53.068;18.234;2022-11-23T15:03:14;100375.28;;;0.95;100.00
21357;BME280;10836;53.068;18.234;2022-11-23T15:06:14;100382.97;;;0.91;100.00
21357;BME280;10836;53.068;18.234;2022-11-23T15:11:25;100384.91;;;0.84;100.00
21357;BME280;10836;53.068;18.234;2022-11-23T15:13:54;100390.66;;;0.88;100.00